UAL777 KORD-KLAS
Flight info
| Callsign | UAL777 |
|---|---|
| Flight time | N/A |
| Altitude | 34000 |
| Route | MYKIE MONNY JORDY KP69C OBH KD66A BRWRY KD63Y DVV/N0447F360 CHESZ GGAPP CHOWW4 |
| Aircraft | A21N/M-SADE3GHIJ4J5M1P2RWXYZ/LB1D1 |
Departure
| Time | 2026-05-07 00:44 |
|---|---|
| Airport | Chicago O'Hare International Airport (KORD) |
Arrival
| Time | N/A |
|---|---|
| Airport | Harry Reid International Airport (KLAS) |
| Time | Latitude | Longitude | Altitude | Speed | Heading |
|---|---|---|---|---|---|
| 2026-05-06 23:47 | 41.97832 | -87.90751 | 674 ft | 0 kts | 99° |
| 2026-05-07 00:28 | 41.97834 | -87.90764 | 673 ft | 4 kts | 100° |
| 2026-05-07 00:28 | 41.97840 | -87.90799 | 673 ft | 4 kts | 113° |
| 2026-05-07 00:28 | 41.97853 | -87.90822 | 670 ft | 4 kts | 167° |
| 2026-05-07 00:29 | 41.97875 | -87.90820 | 673 ft | 4 kts | 189° |
| 2026-05-07 00:29 | 41.97887 | -87.90818 | 674 ft | 0 kts | 189° |
| 2026-05-07 00:32 | 41.97880 | -87.90819 | 671 ft | 2 kts | 189° |
| 2026-05-07 00:32 | 41.97862 | -87.90823 | 672 ft | 3 kts | 189° |
| 2026-05-07 00:33 | 41.97837 | -87.90829 | 672 ft | 4 kts | 189° |
| 2026-05-07 00:33 | 41.97806 | -87.90836 | 674 ft | 5 kts | 189° |
| 2026-05-07 00:33 | 41.97767 | -87.90844 | 673 ft | 6 kts | 189° |
| 2026-05-07 00:33 | 41.97723 | -87.90854 | 674 ft | 7 kts | 189° |
| 2026-05-07 00:34 | 41.97672 | -87.90865 | 674 ft | 8 kts | 192° |
| 2026-05-07 00:34 | 41.97615 | -87.90878 | 674 ft | 9 kts | 187° |
| 2026-05-07 00:34 | 41.97558 | -87.90914 | 674 ft | 10 kts | 215° |
| 2026-05-07 00:34 | 41.97537 | -87.90966 | 674 ft | 6 kts | 251° |
| 2026-05-07 00:35 | 41.97521 | -87.91025 | 674 ft | 7 kts | 236° |
| 2026-05-07 00:35 | 41.97471 | -87.91033 | 673 ft | 8 kts | 156° |
| 2026-05-07 00:35 | 41.97422 | -87.90987 | 674 ft | 9 kts | 140° |
| 2026-05-07 00:35 | 41.97373 | -87.90929 | 674 ft | 10 kts | 137° |
| 2026-05-07 00:36 | 41.97321 | -87.90863 | 674 ft | 11 kts | 135° |
| 2026-05-07 00:36 | 41.97268 | -87.90786 | 674 ft | 12 kts | 131° |
| 2026-05-07 00:36 | 41.97228 | -87.90687 | 674 ft | 13 kts | 108° |
| 2026-05-07 00:36 | 41.97213 | -87.90568 | 674 ft | 13 kts | 96° |
| 2026-05-07 00:37 | 41.97171 | -87.90519 | 674 ft | 9 kts | 161° |
| 2026-05-07 00:37 | 41.97119 | -87.90486 | 674 ft | 8 kts | 172° |
| 2026-05-07 00:37 | 41.97101 | -87.90485 | 674 ft | 0 kts | 176° |
| 2026-05-07 00:40 | 41.97055 | -87.90463 | 674 ft | 12 kts | 135° |
| 2026-05-07 00:40 | 41.97045 | -87.90394 | 674 ft | 9 kts | 96° |
| 2026-05-07 00:40 | 41.97041 | -87.90276 | 674 ft | 16 kts | 90° |
| 2026-05-07 00:41 | 41.97042 | -87.90119 | 674 ft | 17 kts | 89° |
| 2026-05-07 00:41 | 41.97042 | -87.89950 | 675 ft | 19 kts | 91° |
| 2026-05-07 00:41 | 41.97043 | -87.89768 | 675 ft | 20 kts | 89° |
| 2026-05-07 00:41 | 41.97026 | -87.89609 | 674 ft | 15 kts | 122° |
| 2026-05-07 00:42 | 41.96946 | -87.89562 | 677 ft | 7 kts | 189° |
| 2026-05-07 00:42 | 41.96907 | -87.89603 | 677 ft | 5 kts | 252° |
| 2026-05-07 00:42 | 41.96906 | -87.89645 | 677 ft | 0 kts | 269° |
| 2026-05-07 00:43 | 41.96905 | -87.89657 | 677 ft | 14 kts | 269° |
| 2026-05-07 00:43 | 41.96908 | -87.90146 | 675 ft | 89 kts | 267° |
| 2026-05-07 00:44 | 41.96906 | -87.91258 | 694 ft | 141 kts | 269° |
| 2026-05-07 00:44 | 41.96878 | -87.92175 | 1048 ft | 142 kts | 267° |
| 2026-05-07 00:44 | 41.96861 | -87.92460 | 1173 ft | 143 kts | 265° |
| 2026-05-07 00:44 | 41.96788 | -87.93704 | 1713 ft | 150 kts | 269° |
| 2026-05-07 00:45 | 41.96746 | -87.95206 | 2127 ft | 172 kts | 271° |
| 2026-05-07 00:45 | 41.96851 | -87.96881 | 2541 ft | 192 kts | 287° |
| 2026-05-07 00:45 | 41.97293 | -87.98714 | 2912 ft | 219 kts | 289° |
| 2026-05-07 00:45 | 41.97794 | -88.00748 | 3504 ft | 236 kts | 289° |
| 2026-05-07 00:46 | 41.98305 | -88.02880 | 4275 ft | 242 kts | 288° |
| 2026-05-07 00:46 | 41.98817 | -88.05039 | 4930 ft | 244 kts | 288° |
| 2026-05-07 00:46 | 41.99333 | -88.07227 | 5689 ft | 247 kts | 288° |
| 2026-05-07 00:46 | 41.99855 | -88.09443 | 6578 ft | 250 kts | 288° |
| 2026-05-07 00:47 | 42.00379 | -88.11680 | 7476 ft | 251 kts | 288° |
| 2026-05-07 00:47 | 42.00905 | -88.13923 | 8357 ft | 253 kts | 288° |
| 2026-05-07 00:47 | 42.01438 | -88.16201 | 9206 ft | 256 kts | 287° |
| 2026-05-07 00:47 | 42.01967 | -88.18471 | 10016 ft | 259 kts | 287° |
| 2026-05-07 00:48 | 42.02522 | -88.20850 | 10482 ft | 276 kts | 287° |
| 2026-05-07 00:48 | 42.03116 | -88.23400 | 10752 ft | 296 kts | 287° |
| 2026-05-07 00:48 | 42.03752 | -88.26134 | 11014 ft | 316 kts | 287° |
| 2026-05-07 00:48 | 42.04419 | -88.29003 | 11554 ft | 325 kts | 287° |
| 2026-05-07 00:49 | 42.05095 | -88.31916 | 12307 ft | 328 kts | 287° |
| 2026-05-07 00:49 | 42.05779 | -88.34866 | 13113 ft | 330 kts | 286° |
| 2026-05-07 00:49 | 42.06461 | -88.37815 | 13905 ft | 332 kts | 286° |
| 2026-05-07 00:49 | 42.07148 | -88.40793 | 14612 ft | 333 kts | 285° |
| 2026-05-07 00:50 | 42.07839 | -88.43785 | 15299 ft | 335 kts | 285° |
| 2026-05-07 00:50 | 42.08533 | -88.46790 | 15996 ft | 337 kts | 285° |
| 2026-05-07 00:50 | 42.09221 | -88.49781 | 16651 ft | 340 kts | 285° |
| 2026-05-07 00:50 | 42.09922 | -88.52838 | 17305 ft | 343 kts | 285° |
| 2026-05-07 00:51 | 42.10628 | -88.55923 | 17967 ft | 346 kts | 285° |
| 2026-05-07 00:51 | 42.11339 | -88.59028 | 18589 ft | 348 kts | 285° |
| 2026-05-07 00:51 | 42.12056 | -88.62154 | 19197 ft | 349 kts | 284° |
| 2026-05-07 00:51 | 42.12774 | -88.65290 | 19816 ft | 350 kts | 284° |
| 2026-05-07 00:52 | 42.13489 | -88.68420 | 20439 ft | 350 kts | 284° |
| 2026-05-07 00:52 | 42.14204 | -88.71559 | 21064 ft | 350 kts | 283° |
| 2026-05-07 00:52 | 42.14920 | -88.74701 | 21682 ft | 351 kts | 283° |
| 2026-05-07 00:52 | 42.15635 | -88.77850 | 22286 ft | 351 kts | 283° |
| 2026-05-07 00:53 | 42.16176 | -88.81045 | 22879 ft | 348 kts | 275° |
| 2026-05-07 00:53 | 42.16272 | -88.84299 | 23460 ft | 347 kts | 268° |
| 2026-05-07 00:53 | 42.16188 | -88.87564 | 23902 ft | 350 kts | 267° |
| 2026-05-07 00:53 | 42.16093 | -88.90858 | 24252 ft | 354 kts | 267° |
| 2026-05-07 00:54 | 42.16001 | -88.94187 | 24660 ft | 356 kts | 267° |
| 2026-05-07 00:54 | 42.15910 | -88.97530 | 25089 ft | 358 kts | 267° |
| 2026-05-07 00:54 | 42.15822 | -89.00846 | 25519 ft | 359 kts | 267° |
| 2026-05-07 00:54 | 42.15737 | -89.04207 | 25949 ft | 360 kts | 267° |
| 2026-05-07 00:55 | 42.15654 | -89.07593 | 26375 ft | 362 kts | 267° |
| 2026-05-07 00:55 | 42.15570 | -89.10985 | 26797 ft | 363 kts | 267° |
| 2026-05-07 00:55 | 42.15485 | -89.14398 | 27209 ft | 364 kts | 267° |
| 2026-05-07 00:55 | 42.15396 | -89.17824 | 27605 ft | 366 kts | 267° |
| 2026-05-07 00:56 | 42.15306 | -89.21221 | 27990 ft | 367 kts | 267° |
| 2026-05-07 00:56 | 42.15214 | -89.24663 | 28356 ft | 369 kts | 267° |
| 2026-05-07 00:56 | 42.15120 | -89.28138 | 28665 ft | 371 kts | 267° |
| 2026-05-07 00:56 | 42.15025 | -89.31613 | 29135 ft | 370 kts | 267° |
| 2026-05-07 00:57 | 42.14928 | -89.35073 | 29651 ft | 367 kts | 267° |
| 2026-05-07 00:57 | 42.14832 | -89.38502 | 30166 ft | 365 kts | 267° |
| 2026-05-07 00:57 | 42.14734 | -89.41906 | 30554 ft | 363 kts | 267° |
| 2026-05-07 00:57 | 42.14637 | -89.45296 | 30885 ft | 362 kts | 266° |
| 2026-05-07 00:58 | 42.14538 | -89.48682 | 31206 ft | 362 kts | 266° |
| 2026-05-07 00:58 | 42.14437 | -89.52066 | 31499 ft | 362 kts | 266° |
| 2026-05-07 00:58 | 42.14338 | -89.55454 | 31794 ft | 362 kts | 266° |
| 2026-05-07 00:58 | 42.14237 | -89.58847 | 32080 ft | 361 kts | 266° |
| 2026-05-07 00:59 | 42.14033 | -89.65567 | 32641 ft | 361 kts | 266° |
| 2026-05-07 00:59 | 42.13928 | -89.68943 | 32911 ft | 361 kts | 266° |
| 2026-05-07 00:59 | 42.13823 | -89.72319 | 33182 ft | 361 kts | 265° |
| 2026-05-07 01:00 | 42.13717 | -89.75702 | 33447 ft | 361 kts | 265° |
| 2026-05-07 01:00 | 42.13610 | -89.79080 | 33709 ft | 360 kts | 265° |
| 2026-05-07 01:00 | 42.13502 | -89.82456 | 33959 ft | 360 kts | 265° |
| 2026-05-07 01:00 | 42.13393 | -89.85833 | 34093 ft | 360 kts | 265° |
| 2026-05-07 01:01 | 42.13284 | -89.89191 | 34104 ft | 359 kts | 265° |
| 2026-05-07 01:01 | 42.13061 | -89.95909 | 34083 ft | 359 kts | 265° |
| 2026-05-07 01:02 | 42.12836 | -90.02630 | 34074 ft | 361 kts | 265° |
| 2026-05-07 01:02 | 42.12604 | -90.09396 | 34074 ft | 362 kts | 265° |
| 2026-05-07 01:03 | 42.12369 | -90.16175 | 34069 ft | 362 kts | 265° |
| 2026-05-07 01:03 | 42.12130 | -90.22908 | 34072 ft | 362 kts | 265° |
| 2026-05-07 01:04 | 42.11885 | -90.29686 | 34073 ft | 362 kts | 265° |
| 2026-05-07 01:04 | 42.11638 | -90.36460 | 34077 ft | 362 kts | 265° |
| 2026-05-07 01:05 | 42.11384 | -90.43252 | 34084 ft | 365 kts | 265° |
| 2026-05-07 01:05 | 42.11126 | -90.50105 | 34093 ft | 367 kts | 265° |
| 2026-05-07 01:06 | 42.10863 | -90.56961 | 34085 ft | 366 kts | 265° |
| 2026-05-07 01:06 | 42.10596 | -90.63821 | 34087 ft | 367 kts | 265° |
| 2026-05-07 01:07 | 42.10326 | -90.70633 | 34085 ft | 367 kts | 265° |
| 2026-05-07 01:07 | 42.10051 | -90.77498 | 34087 ft | 367 kts | 265° |
| 2026-05-07 01:08 | 42.09768 | -90.84410 | 34092 ft | 370 kts | 265° |
| 2026-05-07 01:08 | 42.09483 | -90.91303 | 34092 ft | 370 kts | 265° |
| 2026-05-07 01:09 | 42.09193 | -90.98235 | 34095 ft | 370 kts | 265° |
| 2026-05-07 01:09 | 42.08898 | -91.05162 | 34095 ft | 370 kts | 265° |
| 2026-05-07 01:10 | 42.08599 | -91.12088 | 34095 ft | 370 kts | 265° |
| 2026-05-07 01:10 | 42.08296 | -91.19013 | 34091 ft | 371 kts | 265° |
| 2026-05-07 01:11 | 42.07987 | -91.25956 | 34092 ft | 371 kts | 265° |
| 2026-05-07 01:11 | 42.07945 | -91.32876 | 34093 ft | 372 kts | 269° |
| 2026-05-07 01:12 | 42.08034 | -91.39845 | 34083 ft | 372 kts | 269° |
| 2026-05-07 01:12 | 42.08119 | -91.46828 | 34086 ft | 372 kts | 269° |
| 2026-05-07 01:13 | 42.08198 | -91.53809 | 34092 ft | 373 kts | 269° |
| 2026-05-07 01:13 | 42.08272 | -91.60814 | 34074 ft | 375 kts | 269° |
| 2026-05-07 01:14 | 42.08342 | -91.67799 | 34073 ft | 375 kts | 269° |
| 2026-05-07 01:14 | 42.08408 | -91.74832 | 34068 ft | 375 kts | 269° |
| 2026-05-07 01:15 | 42.08471 | -91.81855 | 34075 ft | 375 kts | 269° |
| 2026-05-07 01:15 | 42.08527 | -91.88880 | 34086 ft | 375 kts | 269° |
| 2026-05-07 01:16 | 42.08580 | -91.95916 | 34095 ft | 376 kts | 269° |
| 2026-05-07 01:16 | 42.08629 | -92.02914 | 34092 ft | 376 kts | 268° |
| 2026-05-07 01:17 | 42.08673 | -92.09959 | 34088 ft | 376 kts | 268° |
| 2026-05-07 01:17 | 42.08714 | -92.17008 | 34084 ft | 376 kts | 268° |
| 2026-05-07 01:18 | 42.08744 | -92.22866 | 34088 ft | 376 kts | 268° |
| 2026-05-07 01:18 | 42.08777 | -92.29923 | 34095 ft | 376 kts | 268° |
| 2026-05-07 01:19 | 42.08805 | -92.36960 | 34087 ft | 379 kts | 268° |
| 2026-05-07 01:19 | 42.08829 | -92.44052 | 34086 ft | 379 kts | 268° |
| 2026-05-07 01:20 | 42.08849 | -92.51157 | 34089 ft | 379 kts | 268° |
| 2026-05-07 01:20 | 42.08863 | -92.58257 | 34090 ft | 379 kts | 268° |
| 2026-05-07 01:21 | 42.08874 | -92.65356 | 34091 ft | 379 kts | 268° |
| 2026-05-07 01:21 | 42.08872 | -92.72429 | 34091 ft | 380 kts | 268° |
| 2026-05-07 01:22 | 42.08871 | -92.79554 | 34095 ft | 381 kts | 268° |
| 2026-05-07 01:22 | 42.08870 | -92.86688 | 34073 ft | 381 kts | 268° |
| 2026-05-07 01:23 | 42.08868 | -92.93820 | 34076 ft | 381 kts | 268° |
| 2026-05-07 01:23 | 42.08860 | -93.00957 | 34062 ft | 381 kts | 268° |
| 2026-05-07 01:24 | 42.08846 | -93.08055 | 34074 ft | 382 kts | 268° |
| 2026-05-07 01:24 | 42.08825 | -93.15234 | 34082 ft | 384 kts | 268° |
| 2026-05-07 01:25 | 42.08800 | -93.22427 | 34083 ft | 384 kts | 268° |
| 2026-05-07 01:25 | 42.08770 | -93.29620 | 34091 ft | 384 kts | 268° |
| 2026-05-07 01:26 | 42.08737 | -93.36816 | 34091 ft | 384 kts | 268° |
| 2026-05-07 01:26 | 42.08701 | -93.44007 | 34074 ft | 384 kts | 268° |
| 2026-05-07 01:27 | 42.08652 | -93.51204 | 34071 ft | 384 kts | 267° |
| 2026-05-07 01:27 | 42.08041 | -93.58285 | 34075 ft | 383 kts | 261° |
| 2026-05-07 01:28 | 42.07232 | -93.65379 | 34074 ft | 383 kts | 261° |
| 2026-05-07 01:28 | 42.06431 | -93.72482 | 34081 ft | 383 kts | 261° |
| 2026-05-07 01:29 | 42.05631 | -93.79580 | 34053 ft | 383 kts | 261° |
| 2026-05-07 01:29 | 42.04823 | -93.86699 | 34053 ft | 386 kts | 261° |
| 2026-05-07 01:30 | 42.04014 | -93.93801 | 34055 ft | 386 kts | 261° |
| 2026-05-07 01:30 | 42.03195 | -94.00951 | 34059 ft | 386 kts | 261° |
| 2026-05-07 01:31 | 42.02369 | -94.08101 | 34078 ft | 386 kts | 261° |
| 2026-05-07 01:31 | 42.01542 | -94.15244 | 34078 ft | 386 kts | 261° |
| 2026-05-07 01:32 | 42.00709 | -94.22383 | 34070 ft | 388 kts | 261° |
| 2026-05-07 01:32 | 41.99866 | -94.29574 | 34085 ft | 390 kts | 261° |
| 2026-05-07 01:33 | 41.99022 | -94.36729 | 34087 ft | 390 kts | 261° |
| 2026-05-07 01:33 | 41.98167 | -94.43934 | 34099 ft | 390 kts | 261° |
| 2026-05-07 01:34 | 41.97309 | -94.51131 | 34106 ft | 390 kts | 261° |
| 2026-05-07 01:34 | 41.96446 | -94.58331 | 34106 ft | 390 kts | 261° |
| 2026-05-07 01:35 | 41.95574 | -94.65569 | 34122 ft | 392 kts | 261° |
| 2026-05-07 01:35 | 41.94697 | -94.72803 | 34072 ft | 392 kts | 261° |
| 2026-05-07 01:36 | 41.93816 | -94.80033 | 34067 ft | 392 kts | 261° |
| 2026-05-07 01:36 | 41.92934 | -94.87227 | 34066 ft | 392 kts | 261° |
| 2026-05-07 01:37 | 41.92043 | -94.94455 | 34077 ft | 392 kts | 261° |
| 2026-05-07 01:37 | 41.91147 | -95.01698 | 34085 ft | 394 kts | 261° |
| 2026-05-07 01:38 | 41.90242 | -95.08967 | 34097 ft | 395 kts | 261° |
| 2026-05-07 01:38 | 41.89331 | -95.16240 | 34088 ft | 395 kts | 261° |
| 2026-05-07 01:39 | 41.88415 | -95.23511 | 34083 ft | 395 kts | 261° |
| 2026-05-07 01:39 | 41.87497 | -95.30774 | 34072 ft | 395 kts | 261° |
| 2026-05-07 01:40 | 41.86578 | -95.38002 | 34072 ft | 396 kts | 261° |
| 2026-05-07 01:40 | 41.85645 | -95.45302 | 34053 ft | 397 kts | 261° |
| 2026-05-07 01:41 | 41.84709 | -95.52581 | 34077 ft | 395 kts | 261° |
| 2026-05-07 01:41 | 41.83768 | -95.59856 | 34083 ft | 395 kts | 261° |
| 2026-05-07 01:42 | 41.82825 | -95.67136 | 34086 ft | 395 kts | 261° |
| 2026-05-07 01:42 | 41.81883 | -95.74355 | 34074 ft | 397 kts | 261° |
| 2026-05-07 01:43 | 41.80924 | -95.81658 | 34073 ft | 398 kts | 261° |
| 2026-05-07 01:43 | 41.79959 | -95.88965 | 34074 ft | 398 kts | 261° |
| 2026-05-07 01:44 | 41.78990 | -95.96285 | 34062 ft | 398 kts | 261° |
| 2026-05-07 01:44 | 41.78015 | -96.03606 | 34061 ft | 398 kts | 261° |
| 2026-05-07 01:45 | 41.77043 | -96.10865 | 34050 ft | 399 kts | 261° |
| 2026-05-07 01:45 | 41.76056 | -96.18201 | 34066 ft | 401 kts | 261° |
| 2026-05-07 01:46 | 41.75062 | -96.25547 | 34061 ft | 401 kts | 261° |
| 2026-05-07 01:46 | 41.74059 | -96.32887 | 34065 ft | 401 kts | 261° |
| 2026-05-07 01:47 | 41.73053 | -96.40246 | 34071 ft | 401 kts | 261° |
| 2026-05-07 01:47 | 41.72047 | -96.47598 | 34049 ft | 401 kts | 261° |
| 2026-05-07 01:48 | 41.71031 | -96.54975 | 34080 ft | 404 kts | 261° |
| 2026-05-07 01:48 | 41.70003 | -96.62394 | 34092 ft | 405 kts | 261° |
| 2026-05-07 01:49 | 41.68979 | -96.69752 | 34093 ft | 405 kts | 261° |
| 2026-05-07 01:49 | 41.67940 | -96.77156 | 34097 ft | 405 kts | 261° |
| 2026-05-07 01:50 | 41.66888 | -96.84567 | 34096 ft | 405 kts | 261° |
| 2026-05-07 01:50 | 41.65824 | -96.92024 | 34105 ft | 409 kts | 262° |
| 2026-05-07 01:51 | 41.64768 | -96.99478 | 34108 ft | 410 kts | 262° |
| 2026-05-07 01:51 | 41.63709 | -97.06974 | 34108 ft | 410 kts | 262° |
| 2026-05-07 01:52 | 41.62636 | -97.14466 | 34111 ft | 410 kts | 262° |
| 2026-05-07 01:52 | 41.61560 | -97.21949 | 34113 ft | 410 kts | 261° |
| 2026-05-07 01:53 | 41.60477 | -97.29381 | 34113 ft | 410 kts | 261° |
| 2026-05-07 01:53 | 41.59388 | -97.36869 | 34115 ft | 410 kts | 261° |
| 2026-05-07 01:54 | 41.58294 | -97.44356 | 34115 ft | 410 kts | 261° |
| 2026-05-07 01:54 | 41.57194 | -97.51842 | 34113 ft | 410 kts | 261° |
| 2026-05-07 01:55 | 41.56081 | -97.59277 | 34098 ft | 411 kts | 261° |
| 2026-05-07 01:55 | 41.54960 | -97.66814 | 34097 ft | 415 kts | 262° |
| 2026-05-07 01:56 | 41.53825 | -97.74388 | 34100 ft | 416 kts | 262° |
| 2026-05-07 01:56 | 41.52695 | -97.81962 | 34090 ft | 416 kts | 262° |
| 2026-05-07 01:57 | 41.51552 | -97.89536 | 34077 ft | 416 kts | 262° |
| 2026-05-07 01:57 | 41.50409 | -97.97108 | 34040 ft | 416 kts | 261° |
| 2026-05-07 01:58 | 41.48473 | -98.04457 | 34061 ft | 426 kts | 249° |
| 2026-05-07 01:58 | 41.45943 | -98.11588 | 34095 ft | 425 kts | 249° |
| 2026-05-07 01:59 | 41.43419 | -98.18718 | 34100 ft | 425 kts | 249° |
| 2026-05-07 01:59 | 41.40901 | -98.25868 | 34097 ft | 425 kts | 249° |
| 2026-05-07 02:00 | 41.38408 | -98.32958 | 34103 ft | 425 kts | 249° |
| 2026-05-07 02:00 | 41.36440 | -98.40355 | 34093 ft | 425 kts | 258° |
| 2026-05-07 02:01 | 41.34778 | -98.47940 | 34100 ft | 426 kts | 258° |
| 2026-05-07 02:01 | 41.33107 | -98.55518 | 34096 ft | 427 kts | 258° |
| 2026-05-07 02:02 | 41.31438 | -98.63043 | 34097 ft | 427 kts | 258° |
| 2026-05-07 02:02 | 41.29752 | -98.70618 | 34092 ft | 427 kts | 258° |
| 2026-05-07 02:03 | 41.28048 | -98.78229 | 34083 ft | 433 kts | 258° |
| 2026-05-07 02:03 | 41.26327 | -98.85917 | 34092 ft | 434 kts | 258° |
| 2026-05-07 02:04 | 41.24595 | -98.93591 | 34097 ft | 434 kts | 258° |
| 2026-05-07 02:04 | 41.22858 | -99.01272 | 34085 ft | 434 kts | 258° |
| 2026-05-07 02:05 | 41.21118 | -99.08935 | 34082 ft | 433 kts | 258° |
| 2026-05-07 02:05 | 41.19370 | -99.16617 | 34067 ft | 438 kts | 258° |
| 2026-05-07 02:06 | 41.17604 | -99.24345 | 34086 ft | 437 kts | 258° |
| 2026-05-07 02:06 | 41.16119 | -99.30823 | 34083 ft | 437 kts | 258° |
| 2026-05-07 02:07 | 41.14356 | -99.38493 | 34086 ft | 437 kts | 258° |
| 2026-05-07 02:07 | 41.11683 | -99.50078 | 34070 ft | 440 kts | 258° |
| 2026-05-07 02:08 | 41.09876 | -99.57864 | 34087 ft | 442 kts | 258° |
| 2026-05-07 02:08 | 41.08055 | -99.65659 | 34092 ft | 442 kts | 258° |
| 2026-05-07 02:09 | 41.06251 | -99.73411 | 34097 ft | 442 kts | 258° |
| 2026-05-07 02:09 | 41.04422 | -99.81190 | 34100 ft | 442 kts | 257° |
| 2026-05-07 02:10 | 41.02575 | -99.88972 | 34091 ft | 445 kts | 258° |
| 2026-05-07 02:10 | 41.00723 | -99.96819 | 34100 ft | 445 kts | 258° |
| 2026-05-07 02:11 | 40.98538 | -100.04543 | 34105 ft | 450 kts | 252° |
| 2026-05-07 02:11 | 40.96081 | -100.12184 | 34108 ft | 452 kts | 252° |
| 2026-05-07 02:12 | 40.93614 | -100.19822 | 34107 ft | 451 kts | 252° |
| 2026-05-07 02:12 | 40.91149 | -100.27441 | 34099 ft | 454 kts | 252° |
| 2026-05-07 02:13 | 40.88651 | -100.35137 | 34114 ft | 455 kts | 252° |
| 2026-05-07 02:13 | 40.86157 | -100.42813 | 34116 ft | 454 kts | 252° |
| 2026-05-07 02:14 | 40.83660 | -100.50463 | 34120 ft | 453 kts | 252° |
| 2026-05-07 02:14 | 40.81172 | -100.58089 | 34092 ft | 451 kts | 252° |
| 2026-05-07 02:15 | 40.78721 | -100.65724 | 34115 ft | 451 kts | 256° |
| 2026-05-07 02:15 | 40.76994 | -100.73626 | 34127 ft | 447 kts | 261° |
| 2026-05-07 02:16 | 40.75375 | -100.81503 | 34125 ft | 447 kts | 260° |
| 2026-05-07 02:16 | 40.73723 | -100.89423 | 34136 ft | 448 kts | 260° |
| 2026-05-07 02:17 | 40.72063 | -100.97335 | 34137 ft | 447 kts | 260° |
| 2026-05-07 02:17 | 40.70399 | -101.05241 | 34144 ft | 448 kts | 260° |
| 2026-05-07 02:18 | 40.68735 | -101.13147 | 34141 ft | 447 kts | 260° |
| 2026-05-07 02:18 | 40.67062 | -101.21045 | 34140 ft | 447 kts | 260° |
| 2026-05-07 02:19 | 40.65383 | -101.28939 | 34133 ft | 447 kts | 260° |
| 2026-05-07 02:19 | 40.63699 | -101.36830 | 34117 ft | 448 kts | 260° |
| 2026-05-07 02:20 | 40.62006 | -101.44678 | 34116 ft | 448 kts | 260° |
| 2026-05-07 02:20 | 40.60299 | -101.52574 | 34115 ft | 448 kts | 260° |
| 2026-05-07 02:21 | 40.58594 | -101.60468 | 34109 ft | 448 kts | 260° |
| 2026-05-07 02:21 | 40.56894 | -101.68349 | 34080 ft | 448 kts | 260° |
| 2026-05-07 02:22 | 40.55185 | -101.76234 | 34109 ft | 448 kts | 260° |
| 2026-05-07 02:22 | 40.53467 | -101.84123 | 34121 ft | 448 kts | 260° |
| 2026-05-07 02:23 | 40.51753 | -101.91952 | 34131 ft | 448 kts | 260° |
| 2026-05-07 02:23 | 40.50024 | -101.99853 | 34136 ft | 450 kts | 259° |
| 2026-05-07 02:24 | 40.48300 | -102.07755 | 34128 ft | 450 kts | 260° |
| 2026-05-07 02:24 | 40.46572 | -102.15669 | 34149 ft | 450 kts | 260° |
| 2026-05-07 02:25 | 40.44838 | -102.23575 | 34154 ft | 450 kts | 260° |
| 2026-05-07 02:25 | 40.43111 | -102.31431 | 34152 ft | 450 kts | 259° |
| 2026-05-07 02:26 | 40.41368 | -102.39316 | 34160 ft | 450 kts | 259° |
| 2026-05-07 02:26 | 40.39623 | -102.47188 | 34154 ft | 450 kts | 259° |
| 2026-05-07 02:27 | 40.37865 | -102.55073 | 34160 ft | 450 kts | 259° |
| 2026-05-07 02:27 | 40.36109 | -102.62946 | 34162 ft | 450 kts | 259° |
| 2026-05-07 02:28 | 40.34345 | -102.70815 | 34161 ft | 450 kts | 259° |
| 2026-05-07 02:28 | 40.32589 | -102.78629 | 34139 ft | 450 kts | 259° |
| 2026-05-07 02:29 | 40.30815 | -102.86494 | 34154 ft | 450 kts | 259° |
| 2026-05-07 02:29 | 40.29035 | -102.94362 | 34165 ft | 451 kts | 259° |
| 2026-05-07 02:30 | 40.27246 | -103.02228 | 34158 ft | 450 kts | 259° |
| 2026-05-07 02:30 | 40.25455 | -103.10092 | 34174 ft | 450 kts | 259° |
| 2026-05-07 02:31 | 40.23653 | -103.17968 | 34114 ft | 451 kts | 259° |
| 2026-05-07 02:31 | 40.21840 | -103.25842 | 34126 ft | 451 kts | 259° |
| 2026-05-07 02:32 | 40.20041 | -103.33657 | 34129 ft | 452 kts | 259° |
| 2026-05-07 02:32 | 40.18225 | -103.41510 | 34137 ft | 451 kts | 259° |
| 2026-05-07 02:33 | 40.16402 | -103.49365 | 34147 ft | 451 kts | 259° |
| 2026-05-07 02:33 | 40.14578 | -103.57206 | 34146 ft | 451 kts | 259° |
| 2026-05-07 02:34 | 40.12742 | -103.65050 | 34149 ft | 451 kts | 259° |
| 2026-05-07 02:34 | 40.10901 | -103.72890 | 34149 ft | 451 kts | 259° |
| 2026-05-07 02:35 | 40.09058 | -103.80747 | 34152 ft | 454 kts | 259° |
| 2026-05-07 02:35 | 40.07196 | -103.88632 | 34144 ft | 454 kts | 259° |
| 2026-05-07 02:36 | 40.05326 | -103.96519 | 34157 ft | 454 kts | 258° |
| 2026-05-07 02:36 | 40.03463 | -104.04348 | 34168 ft | 455 kts | 258° |
| 2026-05-07 02:37 | 40.01586 | -104.12237 | 34167 ft | 454 kts | 258° |
| 2026-05-07 02:37 | 39.99699 | -104.20109 | 34169 ft | 454 kts | 258° |
| 2026-05-07 02:38 | 39.97809 | -104.27964 | 34170 ft | 452 kts | 258° |
| 2026-05-07 02:38 | 39.95923 | -104.35790 | 34175 ft | 452 kts | 259° |
| 2026-05-07 02:39 | 39.94048 | -104.43568 | 34175 ft | 453 kts | 258° |
| 2026-05-07 02:39 | 39.92148 | -104.51397 | 34149 ft | 453 kts | 258° |
| 2026-05-07 02:40 | 39.90246 | -104.59216 | 34145 ft | 453 kts | 258° |
| 2026-05-07 02:40 | 39.88235 | -104.67003 | 34141 ft | 454 kts | 257° |
| 2026-05-07 02:41 | 39.86859 | -104.72109 | 34139 ft | 453 kts | 257° |
| 2026-05-07 02:41 | 39.85844 | -104.75881 | 34139 ft | 453 kts | 257° |
| 2026-05-07 02:42 | 39.83752 | -104.83623 | 34140 ft | 453 kts | 257° |
| 2026-05-07 02:42 | 39.81653 | -104.91356 | 34135 ft | 453 kts | 257° |
| 2026-05-07 02:43 | 39.79555 | -104.99099 | 34138 ft | 454 kts | 257° |
| 2026-05-07 02:43 | 39.77462 | -105.06802 | 34152 ft | 455 kts | 257° |
| 2026-05-07 02:44 | 39.75343 | -105.14545 | 34148 ft | 454 kts | 257° |
| 2026-05-07 02:44 | 39.73209 | -105.22276 | 34144 ft | 454 kts | 256° |
| 2026-05-07 02:45 | 39.71070 | -105.30005 | 34119 ft | 454 kts | 257° |
| 2026-05-07 02:45 | 39.68937 | -105.37741 | 34130 ft | 454 kts | 257° |
| 2026-05-07 02:46 | 39.66800 | -105.45460 | 34123 ft | 454 kts | 257° |
| 2026-05-07 02:46 | 39.64663 | -105.53164 | 34135 ft | 453 kts | 257° |
| 2026-05-07 02:47 | 39.62535 | -105.60815 | 34138 ft | 454 kts | 256° |
| 2026-05-07 02:47 | 39.60393 | -105.68517 | 34122 ft | 454 kts | 257° |
| 2026-05-07 02:48 | 39.58250 | -105.76222 | 34142 ft | 454 kts | 256° |
| 2026-05-07 02:48 | 39.56093 | -105.83914 | 34167 ft | 454 kts | 256° |
| 2026-05-07 02:49 | 39.53922 | -105.91610 | 34158 ft | 454 kts | 256° |
| 2026-05-07 02:49 | 39.51739 | -105.99318 | 34163 ft | 454 kts | 256° |
| 2026-05-07 02:50 | 39.49563 | -106.07011 | 34155 ft | 456 kts | 256° |
| 2026-05-07 02:50 | 39.47389 | -106.14663 | 34162 ft | 456 kts | 256° |
| 2026-05-07 02:51 | 39.45194 | -106.22364 | 34169 ft | 456 kts | 256° |
| 2026-05-07 02:51 | 39.42989 | -106.30044 | 34163 ft | 455 kts | 256° |
| 2026-05-07 02:52 | 39.40784 | -106.37716 | 34157 ft | 455 kts | 256° |
| 2026-05-07 02:52 | 39.38577 | -106.45388 | 34167 ft | 455 kts | 256° |
| 2026-05-07 02:53 | 39.36737 | -106.51768 | 34204 ft | 455 kts | 256° |
| 2026-05-07 02:53 | 39.34525 | -106.59426 | 34185 ft | 455 kts | 256° |
| 2026-05-07 02:54 | 39.32300 | -106.67115 | 34196 ft | 459 kts | 256° |
| 2026-05-07 02:54 | 39.30048 | -106.74849 | 34205 ft | 461 kts | 256° |
| 2026-05-07 02:55 | 39.27788 | -106.82595 | 34223 ft | 459 kts | 256° |
| 2026-05-07 02:55 | 39.25544 | -106.90267 | 34109 ft | 460 kts | 256° |
| 2026-05-07 02:56 | 39.23275 | -106.97980 | 34101 ft | 460 kts | 256° |
| 2026-05-07 02:56 | 39.21006 | -107.05696 | 34068 ft | 458 kts | 256° |
| 2026-05-07 02:57 | 39.18746 | -107.13372 | 34079 ft | 458 kts | 255° |
| 2026-05-07 02:57 | 39.16469 | -107.21052 | 34114 ft | 458 kts | 255° |
| 2026-05-07 02:58 | 39.14193 | -107.28714 | 34113 ft | 458 kts | 255° |
| 2026-05-07 02:58 | 39.11920 | -107.36362 | 34127 ft | 458 kts | 255° |
| 2026-05-07 02:59 | 39.09630 | -107.44031 | 34121 ft | 458 kts | 255° |
| 2026-05-07 02:59 | 39.07348 | -107.51673 | 34146 ft | 457 kts | 255° |
| 2026-05-07 03:00 | 39.05084 | -107.59252 | 34148 ft | 456 kts | 255° |
| 2026-05-07 03:00 | 39.02789 | -107.66883 | 34161 ft | 457 kts | 255° |
| 2026-05-07 03:01 | 39.00485 | -107.74510 | 34132 ft | 457 kts | 255° |
| 2026-05-07 03:01 | 38.98175 | -107.82145 | 34163 ft | 458 kts | 255° |
| 2026-05-07 03:02 | 38.95854 | -107.89761 | 34179 ft | 457 kts | 255° |
| 2026-05-07 03:02 | 38.93553 | -107.97316 | 34195 ft | 456 kts | 255° |
| 2026-05-07 03:03 | 38.91241 | -108.04910 | 34210 ft | 457 kts | 255° |
| 2026-05-07 03:03 | 38.88913 | -108.12503 | 34206 ft | 456 kts | 255° |
| 2026-05-07 03:04 | 38.86586 | -108.20086 | 34211 ft | 457 kts | 255° |
| 2026-05-07 03:04 | 38.84247 | -108.27674 | 34191 ft | 455 kts | 255° |
| 2026-05-07 03:05 | 38.81934 | -108.35172 | 34173 ft | 455 kts | 255° |
| 2026-05-07 03:05 | 38.79595 | -108.42713 | 34152 ft | 455 kts | 255° |
| 2026-05-07 03:06 | 38.77249 | -108.50260 | 34136 ft | 455 kts | 254° |
| 2026-05-07 03:06 | 38.74904 | -108.57793 | 34140 ft | 455 kts | 254° |
| 2026-05-07 03:07 | 38.72563 | -108.65320 | 34146 ft | 455 kts | 254° |
| 2026-05-07 03:07 | 38.70228 | -108.72853 | 34146 ft | 454 kts | 254° |
| 2026-05-07 03:08 | 38.67876 | -108.80370 | 34131 ft | 455 kts | 254° |
| 2026-05-07 03:08 | 38.65524 | -108.87829 | 34142 ft | 455 kts | 254° |
| 2026-05-07 03:09 | 38.63156 | -108.95354 | 34144 ft | 455 kts | 254° |
| 2026-05-07 03:09 | 38.60785 | -109.02859 | 34139 ft | 455 kts | 253° |
| 2026-05-07 03:10 | 38.58407 | -109.10361 | 34137 ft | 455 kts | 253° |
| 2026-05-07 03:10 | 38.56022 | -109.17864 | 34131 ft | 456 kts | 253° |
| 2026-05-07 03:11 | 38.53645 | -109.25315 | 34135 ft | 455 kts | 253° |
| 2026-05-07 03:11 | 38.51247 | -109.32808 | 34125 ft | 455 kts | 253° |
| 2026-05-07 03:12 | 38.48847 | -109.40298 | 34125 ft | 455 kts | 253° |
| 2026-05-07 03:12 | 38.46451 | -109.47774 | 34105 ft | 456 kts | 253° |
| 2026-05-07 03:13 | 38.44050 | -109.55219 | 34111 ft | 457 kts | 253° |
| 2026-05-07 03:13 | 38.41626 | -109.62719 | 34116 ft | 457 kts | 253° |
| 2026-05-07 03:14 | 38.39193 | -109.70208 | 34107 ft | 457 kts | 253° |
| 2026-05-07 03:15 | 38.35535 | -109.81430 | 34085 ft | 457 kts | 253° |
| 2026-05-07 03:15 | 38.33127 | -109.88853 | 34099 ft | 455 kts | 253° |
| 2026-05-07 03:16 | 38.30705 | -109.96312 | 34098 ft | 455 kts | 253° |
| 2026-05-07 03:16 | 38.28263 | -110.03752 | 34100 ft | 455 kts | 252° |
| 2026-05-07 03:17 | 38.25714 | -110.11153 | 34085 ft | 457 kts | 251° |
| 2026-05-07 03:17 | 38.23162 | -110.18524 | 34079 ft | 458 kts | 251° |
| 2026-05-07 03:18 | 38.20586 | -110.25943 | 34080 ft | 458 kts | 251° |
| 2026-05-07 03:18 | 38.18007 | -110.33356 | 34077 ft | 458 kts | 251° |
| 2026-05-07 03:19 | 38.15425 | -110.40756 | 34062 ft | 458 kts | 251° |
| 2026-05-07 03:19 | 38.12839 | -110.48148 | 34053 ft | 458 kts | 251° |
| 2026-05-07 03:20 | 38.10261 | -110.55500 | 34060 ft | 458 kts | 251° |
| 2026-05-07 03:20 | 38.07665 | -110.62887 | 34060 ft | 458 kts | 251° |
| 2026-05-07 03:21 | 38.05065 | -110.70264 | 34058 ft | 458 kts | 250° |
| 2026-05-07 03:21 | 38.02448 | -110.77674 | 34127 ft | 462 kts | 250° |
| 2026-05-07 03:21 | 38.01126 | -110.81415 | 34244 ft | 465 kts | 250° |
| 2026-05-07 03:22 | 37.99799 | -110.85162 | 34487 ft | 466 kts | 250° |
| 2026-05-07 03:22 | 37.98485 | -110.88860 | 34750 ft | 465 kts | 250° |
| 2026-05-07 03:22 | 37.97156 | -110.92599 | 35012 ft | 464 kts | 250° |
| 2026-05-07 03:22 | 37.95827 | -110.96336 | 35249 ft | 464 kts | 250° |
| 2026-05-07 03:23 | 37.94497 | -111.00070 | 35500 ft | 464 kts | 250° |
| 2026-05-07 03:23 | 37.93170 | -111.03789 | 35746 ft | 463 kts | 250° |
| 2026-05-07 03:23 | 37.91843 | -111.07508 | 35987 ft | 462 kts | 250° |
| 2026-05-07 03:24 | 37.89201 | -111.14898 | 36057 ft | 462 kts | 250° |
| 2026-05-07 03:24 | 37.86542 | -111.22313 | 36043 ft | 462 kts | 250° |
| 2026-05-07 03:25 | 37.83883 | -111.29712 | 36040 ft | 462 kts | 250° |
| 2026-05-07 03:25 | 37.81214 | -111.37117 | 36021 ft | 462 kts | 250° |
| 2026-05-07 03:25 | 37.79880 | -111.40817 | 35869 ft | 463 kts | 250° |
| 2026-05-07 03:26 | 37.78541 | -111.44522 | 35641 ft | 463 kts | 249° |
| 2026-05-07 03:26 | 37.77218 | -111.48178 | 35412 ft | 463 kts | 250° |
| 2026-05-07 03:26 | 37.75873 | -111.51887 | 35172 ft | 463 kts | 250° |
| 2026-05-07 03:26 | 37.74529 | -111.55591 | 34939 ft | 463 kts | 249° |
| 2026-05-07 03:27 | 37.73186 | -111.59291 | 34698 ft | 463 kts | 250° |
| 2026-05-07 03:27 | 37.71842 | -111.62987 | 34449 ft | 463 kts | 250° |
| 2026-05-07 03:27 | 37.70499 | -111.66676 | 34215 ft | 462 kts | 250° |
| 2026-05-07 03:27 | 37.69151 | -111.70375 | 33973 ft | 462 kts | 250° |
| 2026-05-07 03:28 | 37.67807 | -111.74057 | 33726 ft | 462 kts | 250° |
| 2026-05-07 03:28 | 37.66463 | -111.77734 | 33481 ft | 461 kts | 249° |
| 2026-05-07 03:28 | 37.65116 | -111.81415 | 33228 ft | 461 kts | 249° |
| 2026-05-07 03:28 | 37.63790 | -111.85033 | 32994 ft | 460 kts | 249° |
| 2026-05-07 03:29 | 37.62445 | -111.88702 | 32758 ft | 460 kts | 249° |
| 2026-05-07 03:29 | 37.61099 | -111.92370 | 32515 ft | 460 kts | 249° |
| 2026-05-07 03:29 | 37.59752 | -111.96034 | 32275 ft | 460 kts | 249° |
| 2026-05-07 03:30 | 37.57048 | -112.03373 | 32198 ft | 462 kts | 249° |
| 2026-05-07 03:30 | 37.54335 | -112.10721 | 32223 ft | 461 kts | 249° |
| 2026-05-07 03:31 | 37.51234 | -112.17796 | 32198 ft | 467 kts | 240° |
| 2026-05-07 03:31 | 37.47600 | -112.24601 | 32168 ft | 467 kts | 240° |
| 2026-05-07 03:32 | 37.44009 | -112.31464 | 32113 ft | 471 kts | 240° |
| 2026-05-07 03:32 | 37.40430 | -112.38358 | 32066 ft | 469 kts | 240° |
| 2026-05-07 03:33 | 37.36862 | -112.45222 | 32045 ft | 470 kts | 240° |
| 2026-05-07 03:33 | 37.33295 | -112.52062 | 32047 ft | 470 kts | 240° |
| 2026-05-07 03:34 | 37.29709 | -112.58922 | 32047 ft | 470 kts | 240° |
| 2026-05-07 03:34 | 37.26114 | -112.65786 | 32049 ft | 470 kts | 240° |
| 2026-05-07 03:35 | 37.22519 | -112.72636 | 32046 ft | 470 kts | 240° |
| 2026-05-07 03:35 | 37.18917 | -112.79487 | 32065 ft | 470 kts | 239° |
| 2026-05-07 03:36 | 37.15315 | -112.86321 | 32112 ft | 469 kts | 239° |
| 2026-05-07 03:36 | 37.11730 | -112.93112 | 31681 ft | 469 kts | 239° |
| 2026-05-07 03:36 | 37.09922 | -112.96532 | 31418 ft | 471 kts | 239° |
| 2026-05-07 03:37 | 37.08132 | -112.99914 | 31186 ft | 472 kts | 239° |
| 2026-05-07 03:37 | 37.06316 | -113.03341 | 30952 ft | 473 kts | 239° |
| 2026-05-07 03:37 | 37.04495 | -113.06774 | 30710 ft | 474 kts | 239° |
| 2026-05-07 03:37 | 37.02670 | -113.10214 | 30464 ft | 474 kts | 239° |
| 2026-05-07 03:38 | 37.00843 | -113.13654 | 30205 ft | 475 kts | 239° |
| 2026-05-07 03:38 | 36.99012 | -113.17096 | 29912 ft | 475 kts | 238° |
| 2026-05-07 03:38 | 36.97177 | -113.20541 | 29621 ft | 475 kts | 238° |
| 2026-05-07 03:38 | 36.95344 | -113.23978 | 29324 ft | 474 kts | 238° |
| 2026-05-07 03:39 | 36.93518 | -113.27398 | 29039 ft | 471 kts | 238° |
| 2026-05-07 03:39 | 36.91703 | -113.30797 | 28743 ft | 469 kts | 238° |
| 2026-05-07 03:39 | 36.89890 | -113.34185 | 28450 ft | 467 kts | 238° |